CheckWX is a tool to help pilots better visualize weather data.  It is not intended as a substitute for an official pre-flight weather briefing.

05:38:16 UTC

KSDC METAR
Williamson-Sodus Airport
Williamson/Sodus, New York, USA
Current

23 mins ago

KSDC 020515Z AUTO 23003KT 10SM CLR 15/01 A3006 RMK AO2
Observed
Jun-2 @ 05:15 UTC
Wind
  • 230° at 3 KTS
Visibility
Flight Rules
VFR
Cloud Levels
  • Clear skies
Temperature
15°C / 59°F
Dewpoint
C / 34°F
Humidity
39%
Altimeter
30.06" Hg
Pressure
1017.92 hPa
Previous

43 mins ago

KSDC 020455Z AUTO 24004KT 10SM CLR 15/01 A3007 RMK AO2
Observed
Jun-2 @ 04:55 UTC
Wind
  • 240° at 4 KTS
Visibility
Flight Rules
VFR
Cloud Levels
  • Clear skies
Temperature
15°C / 59°F
Dewpoint
C / 34°F
Humidity
39%
Altimeter
30.07" Hg
Pressure
1018.32 hPa
Previous

1 hour ago

KSDC 020435Z AUTO 23003KT 10SM CLR 15/00 A3007 RMK AO2
Observed
Jun-2 @ 04:35 UTC
Wind
  • 230° at 3 KTS
Visibility
Flight Rules
VFR
Cloud Levels
  • Clear skies
Temperature
15°C / 59°F
Dewpoint
C / 32°F
Humidity
36%
Altimeter
30.07" Hg
Pressure
1018.32 hPa